sensor_id;sensor_type;location;lat;lon;timestamp;pressure;altitude;pressure_sealevel;temperature;humidity
63009;BME280;49099;28.428;-16.488;2023-03-03T00:00:58;98995.69;;;19.08;63.37
63009;BME280;49099;28.428;-16.488;2023-03-03T00:03:25;98996.78;;;19.07;62.84
63009;BME280;49099;28.428;-16.488;2023-03-03T00:05:53;98992.00;;;19.04;62.70
63009;BME280;49099;28.428;-16.488;2023-03-03T00:08:21;98995.06;;;19.11;63.02
63009;BME280;49099;28.428;-16.488;2023-03-03T00:10:49;98975.94;;;19.13;63.08
63009;BME280;49099;28.428;-16.488;2023-03-03T00:13:18;98973.91;;;19.18;62.95
63009;BME280;49099;28.428;-16.488;2023-03-03T00:15:47;98969.81;;;19.21;62.38
63009;BME280;49099;28.428;-16.488;2023-03-03T00:18:42;98959.56;;;19.23;62.19
63009;BME280;49099;28.428;-16.488;2023-03-03T00:21:32;98958.75;;;19.23;61.84
63009;BME280;49099;28.428;-16.488;2023-03-03T00:24:30;98953.03;;;19.15;62.15
63009;BME280;49099;28.428;-16.488;2023-03-03T00:27:36;98949.66;;;19.10;62.13
63009;BME280;49099;28.428;-16.488;2023-03-03T00:30:02;98950.28;;;19.07;62.63
63009;BME280;49099;28.428;-16.488;2023-03-03T00:32:50;98948.41;;;19.07;62.62
63009;BME280;49099;28.428;-16.488;2023-03-03T00:35:31;98946.19;;;19.09;62.25
63009;BME280;49099;28.428;-16.488;2023-03-03T00:38:17;98948.75;;;19.14;62.20
63009;BME280;49099;28.428;-16.488;2023-03-03T00:40:46;98955.22;;;19.13;62.41
63009;BME280;49099;28.428;-16.488;2023-03-03T00:43:21;98951.28;;;19.19;62.61
63009;BME280;49099;28.428;-16.488;2023-03-03T00:50:54;98954.25;;;19.09;61.98
63009;BME280;49099;28.428;-16.488;2023-03-03T00:53:23;98957.25;;;19.08;61.93
63009;BME280;49099;28.428;-16.488;2023-03-03T00:55:51;98951.88;;;19.08;61.82
63009;BME280;49099;28.428;-16.488;2023-03-03T00:58:20;98956.47;;;19.07;61.24
63009;BME280;49099;28.428;-16.488;2023-03-03T01:00:49;98963.41;;;19.08;61.77
63009;BME280;49099;28.428;-16.488;2023-03-03T01:03:19;98960.41;;;19.10;61.14
63009;BME280;49099;28.428;-16.488;2023-03-03T01:05:48;98952.66;;;19.08;60.67
63009;BME280;49099;28.428;-16.488;2023-03-03T01:08:16;98956.47;;;19.07;61.01
63009;BME280;49099;28.428;-16.488;2023-03-03T01:10:56;98958.66;;;19.05;61.56
63009;BME280;49099;28.428;-16.488;2023-03-03T01:13:30;98951.69;;;19.04;61.12
63009;BME280;49099;28.428;-16.488;2023-03-03T01:15:59;98955.13;;;18.96;61.24
63009;BME280;49099;28.428;-16.488;2023-03-03T01:18:27;98950.00;;;18.86;61.76
63009;BME280;49099;28.428;-16.488;2023-03-03T01:20:54;98957.06;;;18.82;61.62
63009;BME280;49099;28.428;-16.488;2023-03-03T01:23:21;98952.94;;;18.76;61.98
63009;BME280;49099;28.428;-16.488;2023-03-03T01:25:48;98955.44;;;18.72;62.53
63009;BME280;49099;28.428;-16.488;2023-03-03T01:28:15;98948.78;;;18.70;62.54
63009;BME280;49099;28.428;-16.488;2023-03-03T01:30:42;98947.06;;;18.74;62.99
63009;BME280;49099;28.428;-16.488;2023-03-03T01:33:09;98949.63;;;18.79;62.77
63009;BME280;49099;28.428;-16.488;2023-03-03T01:35:36;98947.63;;;18.84;62.68
63009;BME280;49099;28.428;-16.488;2023-03-03T01:38:06;98942.41;;;18.88;62.59
63009;BME280;49099;28.428;-16.488;2023-03-03T01:40:33;98945.47;;;18.95;62.58
63009;BME280;49099;28.428;-16.488;2023-03-03T01:43:02;98948.53;;;19.02;62.27
63009;BME280;49099;28.428;-16.488;2023-03-03T01:45:44;98940.94;;;19.04;61.94
63009;BME280;49099;28.428;-16.488;2023-03-03T01:48:22;98942.38;;;19.10;61.66
63009;BME280;49099;28.428;-16.488;2023-03-03T01:50:56;98938.50;;;18.94;61.19
63009;BME280;49099;28.428;-16.488;2023-03-03T01:53:32;98943.94;;;18.80;61.09
63009;BME280;49099;28.428;-16.488;2023-03-03T01:56:02;98933.16;;;18.72;61.28
63009;BME280;49099;28.428;-16.488;2023-03-03T02:01:22;98930.94;;;18.74;61.88
63009;BME280;49099;28.428;-16.488;2023-03-03T02:03:50;98924.97;;;18.77;61.25
63009;BME280;49099;28.428;-16.488;2023-03-03T02:06:23;98922.75;;;18.79;61.01
63009;BME280;49099;28.428;-16.488;2023-03-03T02:09:09;98918.97;;;18.80;61.31
63009;BME280;49099;28.428;-16.488;2023-03-03T02:11:41;98924.34;;;18.80;61.97
63009;BME280;49099;28.428;-16.488;2023-03-03T02:14:11;98925.34;;;18.84;61.45
63009;BME280;49099;28.428;-16.488;2023-03-03T02:16:39;98930.09;;;18.87;61.50
63009;BME280;49099;28.428;-16.488;2023-03-03T02:19:14;98925.69;;;18.91;61.17
63009;BME280;49099;28.428;-16.488;2023-03-03T02:21:44;98935.47;;;18.87;61.06
63009;BME280;49099;28.428;-16.488;2023-03-03T02:24:26;98938.25;;;18.82;61.73
63009;BME280;49099;28.428;-16.488;2023-03-03T02:26:55;98941.81;;;18.91;61.96
63009;BME280;49099;28.428;-16.488;2023-03-03T02:29:22;98935.81;;;18.94;61.82
63009;BME280;49099;28.428;-16.488;2023-03-03T02:31:49;98930.19;;;19.04;61.93
63009;BME280;49099;28.428;-16.488;2023-03-03T02:34:16;98935.75;;;19.08;62.04
63009;BME280;49099;28.428;-16.488;2023-03-03T02:36:43;98932.19;;;18.99;63.25
63009;BME280;49099;28.428;-16.488;2023-03-03T02:39:23;98933.69;;;18.82;64.20
63009;BME280;49099;28.428;-16.488;2023-03-03T02:44:49;98927.16;;;18.52;63.28
63009;BME280;49099;28.428;-16.488;2023-03-03T02:47:16;98928.84;;;18.48;62.58
63009;BME280;49099;28.428;-16.488;2023-03-03T02:49:44;98925.06;;;18.49;62.39
63009;BME280;49099;28.428;-16.488;2023-03-03T02:52:11;98921.88;;;18.47;62.53
63009;BME280;49099;28.428;-16.488;2023-03-03T02:54:40;98922.47;;;18.44;62.19
63009;BME280;49099;28.428;-16.488;2023-03-03T02:57:07;98918.53;;;18.42;61.68
63009;BME280;49099;28.428;-16.488;2023-03-03T02:59:34;98913.94;;;18.42;61.82
63009;BME280;49099;28.428;-16.488;2023-03-03T03:02:01;98912.03;;;18.43;62.07
63009;BME280;49099;28.428;-16.488;2023-03-03T03:04:29;98907.78;;;18.42;61.88
63009;BME280;49099;28.428;-16.488;2023-03-03T03:06:56;98900.41;;;18.47;61.42
63009;BME280;49099;28.428;-16.488;2023-03-03T03:09:23;98899.59;;;18.47;61.10
63009;BME280;49099;28.428;-16.488;2023-03-03T03:11:51;98891.34;;;18.43;60.96
63009;BME280;49099;28.428;-16.488;2023-03-03T03:14:19;98889.47;;;18.44;61.19
63009;BME280;49099;28.428;-16.488;2023-03-03T03:16:46;98883.91;;;18.40;60.19
63009;BME280;49099;28.428;-16.488;2023-03-03T03:19:13;98879.97;;;18.37;60.36
63009;BME280;49099;28.428;-16.488;2023-03-03T03:21:40;98870.59;;;18.35;60.16
63009;BME280;49099;28.428;-16.488;2023-03-03T03:24:08;98861.44;;;18.36;59.84
63009;BME280;49099;28.428;-16.488;2023-03-03T03:26:35;98856.06;;;18.36;60.98
63009;BME280;49099;28.428;-16.488;2023-03-03T03:29:02;98846.94;;;18.37;62.12
63009;BME280;49099;28.428;-16.488;2023-03-03T03:31:30;98842.84;;;18.40;62.33
63009;BME280;49099;28.428;-16.488;2023-03-03T03:33:57;98835.09;;;18.38;62.35
63009;BME280;49099;28.428;-16.488;2023-03-03T03:36:26;98827.84;;;18.38;62.16
63009;BME280;49099;28.428;-16.488;2023-03-03T03:38:54;98833.00;;;18.35;62.71
63009;BME280;49099;28.428;-16.488;2023-03-03T03:41:21;98827.63;;;18.35;62.98
63009;BME280;49099;28.428;-16.488;2023-03-03T03:43:48;98837.28;;;18.36;62.94
63009;BME280;49099;28.428;-16.488;2023-03-03T03:46:15;98824.16;;;18.34;62.96
63009;BME280;49099;28.428;-16.488;2023-03-03T03:48:42;98828.75;;;18.34;63.37
63009;BME280;49099;28.428;-16.488;2023-03-03T03:51:11;98828.44;;;18.35;63.14
63009;BME280;49099;28.428;-16.488;2023-03-03T03:53:38;98825.47;;;18.37;63.27
63009;BME280;49099;28.428;-16.488;2023-03-03T03:56:06;98818.47;;;18.36;62.88
63009;BME280;49099;28.428;-16.488;2023-03-03T03:58:33;98817.69;;;18.35;62.63
63009;BME280;49099;28.428;-16.488;2023-03-03T04:01:02;98820.38;;;18.35;62.60
63009;BME280;49099;28.428;-16.488;2023-03-03T04:03:30;98820.69;;;18.34;62.29
63009;BME280;49099;28.428;-16.488;2023-03-03T04:05:57;98820.19;;;18.32;62.05
63009;BME280;49099;28.428;-16.488;2023-03-03T04:08:24;98823.50;;;18.29;62.03
63009;BME280;49099;28.428;-16.488;2023-03-03T04:10:51;98825.88;;;18.30;62.13
63009;BME280;49099;28.428;-16.488;2023-03-03T04:13:18;98815.16;;;18.30;62.41
63009;BME280;49099;28.428;-16.488;2023-03-03T04:15:45;98822.88;;;18.32;62.93
63009;BME280;49099;28.428;-16.488;2023-03-03T04:18:13;98818.94;;;18.29;62.89
63009;BME280;49099;28.428;-16.488;2023-03-03T04:20:40;98822.25;;;18.35;62.70
63009;BME280;49099;28.428;-16.488;2023-03-03T04:23:07;98824.84;;;18.40;62.14
63009;BME280;49099;28.428;-16.488;2023-03-03T04:25:34;98827.41;;;18.45;62.00
63009;BME280;49099;28.428;-16.488;2023-03-03T04:28:02;98825.38;;;18.51;62.02
63009;BME280;49099;28.428;-16.488;2023-03-03T04:30:31;98824.94;;;18.57;61.62
63009;BME280;49099;28.428;-16.488;2023-03-03T04:32:58;98822.72;;;18.59;61.89
63009;BME280;49099;28.428;-16.488;2023-03-03T04:35:25;98818.28;;;18.55;62.00
63009;BME280;49099;28.428;-16.488;2023-03-03T04:37:52;98821.75;;;18.55;61.94
63009;BME280;49099;28.428;-16.488;2023-03-03T04:40:20;98814.81;;;18.54;62.20
63009;BME280;49099;28.428;-16.488;2023-03-03T04:42:47;98809.44;;;18.54;62.35
63009;BME280;49099;28.428;-16.488;2023-03-03T04:45:14;98804.66;;;18.51;62.02
63009;BME280;49099;28.428;-16.488;2023-03-03T04:47:42;98810.50;;;18.45;62.30
63009;BME280;49099;28.428;-16.488;2023-03-03T04:50:10;98803.19;;;18.36;62.24
63009;BME280;49099;28.428;-16.488;2023-03-03T04:52:37;98796.03;;;18.32;62.45
63009;BME280;49099;28.428;-16.488;2023-03-03T04:55:04;98803.47;;;18.35;62.00
63009;BME280;49099;28.428;-16.488;2023-03-03T04:57:36;98803.00;;;18.33;61.29
63009;BME280;49099;28.428;-16.488;2023-03-03T05:00:05;98803.63;;;18.30;61.96
63009;BME280;49099;28.428;-16.488;2023-03-03T05:02:32;98807.72;;;18.36;61.54
63009;BME280;49099;28.428;-16.488;2023-03-03T05:04:59;98799.81;;;18.31;61.60
63009;BME280;49099;28.428;-16.488;2023-03-03T05:07:27;98798.53;;;18.28;62.04
63009;BME280;49099;28.428;-16.488;2023-03-03T05:09:54;98790.94;;;18.22;62.71
63009;BME280;49099;28.428;-16.488;2023-03-03T05:12:21;98787.75;;;18.20;62.93
63009;BME280;49099;28.428;-16.488;2023-03-03T05:14:48;98795.50;;;18.21;63.03
63009;BME280;49099;28.428;-16.488;2023-03-03T05:17:15;98794.09;;;18.24;62.66
63009;BME280;49099;28.428;-16.488;2023-03-03T05:19:42;98800.41;;;18.28;62.65
63009;BME280;49099;28.428;-16.488;2023-03-03T05:22:10;98800.31;;;18.33;61.82
63009;BME280;49099;28.428;-16.488;2023-03-03T05:24:37;98799.81;;;18.31;61.75
63009;BME280;49099;28.428;-16.488;2023-03-03T05:27:04;98803.63;;;18.30;62.32
63009;BME280;49099;28.428;-16.488;2023-03-03T05:29:31;98801.41;;;18.32;61.56
63009;BME280;49099;28.428;-16.488;2023-03-03T05:31:59;98800.31;;;18.33;61.57
63009;BME280;49099;28.428;-16.488;2023-03-03T05:34:27;98798.41;;;18.33;61.72
63009;BME280;49099;28.428;-16.488;2023-03-03T05:36:54;98806.34;;;18.38;62.10
63009;BME280;49099;28.428;-16.488;2023-03-03T05:39:21;98803.34;;;18.40;62.49
63009;BME280;49099;28.428;-16.488;2023-03-03T05:41:49;98800.66;;;18.40;62.62
63009;BME280;49099;28.428;-16.488;2023-03-03T05:44:16;98799.19;;;18.34;62.64
63009;BME280;49099;28.428;-16.488;2023-03-03T05:46:46;98805.78;;;18.28;63.62
63009;BME280;49099;28.428;-16.488;2023-03-03T05:49:13;98795.31;;;18.18;64.21
63009;BME280;49099;28.428;-16.488;2023-03-03T05:51:40;98803.78;;;18.11;64.53
63009;BME280;49099;28.428;-16.488;2023-03-03T05:54:07;98796.66;;;18.06;63.86
63009;BME280;49099;28.428;-16.488;2023-03-03T05:56:34;98794.09;;;18.01;63.20
63009;BME280;49099;28.428;-16.488;2023-03-03T05:59:02;98789.34;;;17.98;63.25
63009;BME280;49099;28.428;-16.488;2023-03-03T06:01:29;98784.88;;;17.94;62.72
63009;BME280;49099;28.428;-16.488;2023-03-03T06:03:56;98789.56;;;17.88;62.74
63009;BME280;49099;28.428;-16.488;2023-03-03T06:06:23;98794.44;;;17.86;63.27
63009;BME280;49099;28.428;-16.488;2023-03-03T06:08:50;98783.25;;;17.84;63.96
63009;BME280;49099;28.428;-16.488;2023-03-03T06:11:22;98785.91;;;17.84;64.32
63009;BME280;49099;28.428;-16.488;2023-03-03T06:13:50;98788.13;;;17.82;64.75
63009;BME280;49099;28.428;-16.488;2023-03-03T06:16:17;98784.03;;;17.85;64.57
63009;BME280;49099;28.428;-16.488;2023-03-03T06:18:45;98793.66;;;17.86;63.84
63009;BME280;49099;28.428;-16.488;2023-03-03T06:21:12;98771.41;;;17.85;62.29
63009;BME280;49099;28.428;-16.488;2023-03-03T06:23:40;98778.34;;;17.86;61.46
63009;BME280;49099;28.428;-16.488;2023-03-03T06:26:07;98776.94;;;17.89;60.26
63009;BME280;49099;28.428;-16.488;2023-03-03T06:28:34;98773.47;;;17.88;59.30
63009;BME280;49099;28.428;-16.488;2023-03-03T06:31:01;98782.94;;;17.86;58.89
63009;BME280;49099;28.428;-16.488;2023-03-03T06:33:28;98781.34;;;17.85;58.75
63009;BME280;49099;28.428;-16.488;2023-03-03T06:35:55;98782.13;;;17.85;57.06
63009;BME280;49099;28.428;-16.488;2023-03-03T06:38:23;98789.50;;;17.79;56.61
63009;BME280;49099;28.428;-16.488;2023-03-03T06:40:50;98789.81;;;17.78;56.97
63009;BME280;49099;28.428;-16.488;2023-03-03T06:43:17;98787.75;;;17.75;58.87
63009;BME280;49099;28.428;-16.488;2023-03-03T06:45:44;98779.94;;;17.87;59.41
63009;BME280;49099;28.428;-16.488;2023-03-03T06:48:11;98781.88;;;17.95;59.73
63009;BME280;49099;28.428;-16.488;2023-03-03T06:50:39;98778.09;;;17.96;59.97
63009;BME280;49099;28.428;-16.488;2023-03-03T06:53:13;98783.00;;;17.94;60.67
63009;BME280;49099;28.428;-16.488;2023-03-03T06:55:41;98780.94;;;17.91;61.56
63009;BME280;49099;28.428;-16.488;2023-03-03T06:58:13;98772.38;;;17.89;61.24
63009;BME280;49099;28.428;-16.488;2023-03-03T07:00:43;98781.50;;;17.88;61.46
63009;BME280;49099;28.428;-16.488;2023-03-03T07:03:16;98784.72;;;17.90;60.94
63009;BME280;49099;28.428;-16.488;2023-03-03T07:05:44;98783.63;;;17.91;60.64
63009;BME280;49099;28.428;-16.488;2023-03-03T07:08:20;98787.16;;;18.00;59.73
63009;BME280;49099;28.428;-16.488;2023-03-03T07:10:49;98788.63;;;18.06;60.24
63009;BME280;49099;28.428;-16.488;2023-03-03T07:13:25;98795.75;;;18.11;59.12
63009;BME280;49099;28.428;-16.488;2023-03-03T07:15:54;98795.94;;;18.15;58.47
63009;BME280;49099;28.428;-16.488;2023-03-03T07:18:51;98797.09;;;18.22;58.72
63009;BME280;49099;28.428;-16.488;2023-03-03T07:21:19;98804.84;;;18.24;58.83
63009;BME280;49099;28.428;-16.488;2023-03-03T07:23:49;98799.09;;;18.17;59.94
63009;BME280;49099;28.428;-16.488;2023-03-03T07:26:24;98808.72;;;18.18;60.50
63009;BME280;49099;28.428;-16.488;2023-03-03T07:28:57;98815.88;;;18.22;61.02
63009;BME280;49099;28.428;-16.488;2023-03-03T07:33:57;98824.31;;;18.29;61.51
63009;BME280;49099;28.428;-16.488;2023-03-03T07:36:34;98832.63;;;18.28;62.21
63009;BME280;49099;28.428;-16.488;2023-03-03T07:39:24;98839.13;;;18.27;62.41
63009;BME280;49099;28.428;-16.488;2023-03-03T07:41:51;98839.31;;;18.30;62.11
63009;BME280;49099;28.428;-16.488;2023-03-03T07:44:21;98846.31;;;18.40;61.82
63009;BME280;49099;28.428;-16.488;2023-03-03T07:46:53;98843.31;;;18.42;61.40
63009;BME280;49099;28.428;-16.488;2023-03-03T07:49:34;98851.44;;;18.50;61.03
63009;BME280;49099;28.428;-16.488;2023-03-03T07:52:19;98851.44;;;18.50;60.55
63009;BME280;49099;28.428;-16.488;2023-03-03T07:54:49;98865.38;;;18.52;60.59
63009;BME280;49099;28.428;-16.488;2023-03-03T07:57:27;98864.38;;;18.48;60.27
63009;BME280;49099;28.428;-16.488;2023-03-03T08:02:46;98870.97;;;18.42;59.02
63009;BME280;49099;28.428;-16.488;2023-03-03T08:05:37;98862.81;;;18.47;59.66
63009;BME280;49099;28.428;-16.488;2023-03-03T08:10:52;98866.16;;;18.53;58.87
63009;BME280;49099;28.428;-16.488;2023-03-03T08:13:23;98863.75;;;18.51;59.19
63009;BME280;49099;28.428;-16.488;2023-03-03T08:18:46;98869.44;;;18.50;60.13
63009;BME280;49099;28.428;-16.488;2023-03-03T08:21:15;98877.19;;;18.51;60.50
63009;BME280;49099;28.428;-16.488;2023-03-03T08:23:44;98870.91;;;18.56;60.24
63009;BME280;49099;28.428;-16.488;2023-03-03T08:26:11;98886.13;;;18.60;60.50
63009;BME280;49099;28.428;-16.488;2023-03-03T08:28:39;98883.31;;;18.65;60.54
63009;BME280;49099;28.428;-16.488;2023-03-03T08:31:07;98886.38;;;18.73;60.74
63009;BME280;49099;28.428;-16.488;2023-03-03T08:33:50;98883.72;;;18.81;60.30
63009;BME280;49099;28.428;-16.488;2023-03-03T08:36:18;98872.84;;;18.86;60.19
63009;BME280;49099;28.428;-16.488;2023-03-03T08:38:45;98884.88;;;18.89;60.37
63009;BME280;49099;28.428;-16.488;2023-03-03T08:41:12;98893.44;;;18.91;60.07
63009;BME280;49099;28.428;-16.488;2023-03-03T08:43:39;98895.50;;;18.94;60.18
63009;BME280;49099;28.428;-16.488;2023-03-03T08:46:06;98894.88;;;18.97;60.01
63009;BME280;49099;28.428;-16.488;2023-03-03T08:48:36;98892.19;;;18.97;59.30
63009;BME280;49099;28.428;-16.488;2023-03-03T08:51:03;98905.78;;;18.92;59.85
63009;BME280;49099;28.428;-16.488;2023-03-03T08:53:31;98906.53;;;18.84;62.19
63009;BME280;49099;28.428;-16.488;2023-03-03T08:55:59;98915.19;;;18.81;62.74
63009;BME280;49099;28.428;-16.488;2023-03-03T08:58:26;98914.59;;;18.84;63.29
63009;BME280;49099;28.428;-16.488;2023-03-03T09:01:00;98914.88;;;18.82;64.40
63009;BME280;49099;28.428;-16.488;2023-03-03T09:03:28;98917.38;;;18.79;64.47
63009;BME280;49099;28.428;-16.488;2023-03-03T09:05:55;98918.84;;;18.85;64.23
63009;BME280;49099;28.428;-16.488;2023-03-03T09:08:22;98927.28;;;18.92;64.06
63009;BME280;49099;28.428;-16.488;2023-03-03T09:10:50;98926.03;;;18.98;63.41
63009;BME280;49099;28.428;-16.488;2023-03-03T09:13:18;98928.59;;;19.03;63.49
63009;BME280;49099;28.428;-16.488;2023-03-03T09:15:46;98931.16;;;19.08;62.71
63009;BME280;49099;28.428;-16.488;2023-03-03T09:18:19;98927.19;;;19.06;62.16
63009;BME280;49099;28.428;-16.488;2023-03-03T09:20:49;98930.19;;;19.04;61.49
63009;BME280;49099;28.428;-16.488;2023-03-03T09:23:40;98937.00;;;19.10;61.55
63009;BME280;49099;28.428;-16.488;2023-03-03T09:26:27;98939.06;;;19.13;61.93
63009;BME280;49099;28.428;-16.488;2023-03-03T09:29:14;98937.84;;;19.19;61.90
63009;BME280;49099;28.428;-16.488;2023-03-03T09:31:55;98944.81;;;19.20;61.46
63009;BME280;49099;28.428;-16.488;2023-03-03T09:34:39;98943.69;;;19.21;61.84
63009;BME280;49099;28.428;-16.488;2023-03-03T09:37:25;98948.16;;;19.26;61.82
63009;BME280;49099;28.428;-16.488;2023-03-03T09:39:54;98948.31;;;19.30;62.02
63009;BME280;49099;28.428;-16.488;2023-03-03T09:43:08;98946.94;;;19.32;62.10
63009;BME280;49099;28.428;-16.488;2023-03-03T09:45:29;98950.41;;;19.33;62.51
63009;BME280;49099;28.428;-16.488;2023-03-03T09:53:44;98946.78;;;19.37;64.06
63009;BME280;49099;28.428;-16.488;2023-03-03T09:56:31;98944.75;;;19.43;63.57
63009;BME280;49099;28.428;-16.488;2023-03-03T10:02:11;98942.06;;;19.43;67.70
63009;BME280;49099;28.428;-16.488;2023-03-03T10:07:49;98938.91;;;19.41;65.26
63009;BME280;49099;28.428;-16.488;2023-03-03T10:29:17;98959.41;;;19.68;65.71
63009;BME280;49099;28.428;-16.488;2023-03-03T10:37:31;98962.97;;;19.77;68.73
63009;BME280;49099;28.428;-16.488;2023-03-03T11:26:48;98936.56;;;20.05;70.66
63009;BME280;49099;28.428;-16.488;2023-03-03T11:34:50;98937.66;;;20.04;70.62
63009;BME280;49099;28.428;-16.488;2023-03-03T11:37:45;98933.06;;;20.13;70.60
63009;BME280;49099;28.428;-16.488;2023-03-03T11:40:19;98935.78;;;20.22;71.01
63009;BME280;49099;28.428;-16.488;2023-03-03T11:43:16;98936.88;;;20.29;70.36
63009;BME280;49099;28.428;-16.488;2023-03-03T11:46:12;98936.25;;;20.33;70.13
63009;BME280;49099;28.428;-16.488;2023-03-03T11:48:59;98938.78;;;20.29;70.05
63009;BME280;49099;28.428;-16.488;2023-03-03T11:55:07;98929.91;;;20.11;71.17
63009;BME280;49099;28.428;-16.488;2023-03-03T12:00:28;98931.34;;;20.00;71.19
63009;BME280;49099;28.428;-16.488;2023-03-03T12:11:27;98922.94;;;20.10;68.03
63009;BME280;49099;28.428;-16.488;2023-03-03T12:14:09;98915.00;;;20.14;67.76
63009;BME280;49099;28.428;-16.488;2023-03-03T12:17:02;98916.63;;;20.23;67.72
63009;BME280;49099;28.428;-16.488;2023-03-03T12:19:54;98910.25;;;20.37;67.57
63009;BME280;49099;28.428;-16.488;2023-03-03T12:22:34;98908.38;;;20.46;66.19
63009;BME280;49099;28.428;-16.488;2023-03-03T12:25:18;98904.72;;;20.59;65.90
63009;BME280;49099;28.428;-16.488;2023-03-03T12:36:15;98878.31;;;21.37;64.49
63009;BME280;49099;28.428;-16.488;2023-03-03T12:48:00;98871.63;;;21.44;65.35
63009;BME280;49099;28.428;-16.488;2023-03-03T12:50:35;98868.81;;;21.31;65.27
63009;BME280;49099;28.428;-16.488;2023-03-03T12:56:07;98861.78;;;21.09;66.68
63009;BME280;49099;28.428;-16.488;2023-03-03T13:07:25;98841.28;;;20.79;67.78
63009;BME280;49099;28.428;-16.488;2023-03-03T13:15:35;98818.56;;;20.89;67.72
63009;BME280;49099;28.428;-16.488;2023-03-03T13:18:24;98814.38;;;21.00;67.15
63009;BME280;49099;28.428;-16.488;2023-03-03T13:21:30;98811.03;;;21.03;67.44
63009;BME280;49099;28.428;-16.488;2023-03-03T13:24:02;98805.88;;;20.89;68.15
63009;BME280;49099;28.428;-16.488;2023-03-03T13:27:26;98790.31;;;20.95;67.88
63009;BME280;49099;28.428;-16.488;2023-03-03T13:29:37;98789.75;;;21.10;67.08
63009;BME280;49099;28.428;-16.488;2023-03-03T13:37:20;98778.84;;;21.57;65.59
63009;BME280;49099;28.428;-16.488;2023-03-03T13:42:37;98758.56;;;21.72;64.72
63009;BME280;49099;28.428;-16.488;2023-03-03T13:45:18;98759.75;;;21.62;64.89
63009;BME280;49099;28.428;-16.488;2023-03-03T13:50:52;98760.00;;;21.69;65.94
63009;BME280;49099;28.428;-16.488;2023-03-03T14:05:14;98715.38;;;21.72;65.80
63009;BME280;49099;28.428;-16.488;2023-03-03T14:07:57;98710.44;;;21.86;65.26
63009;BME280;49099;28.428;-16.488;2023-03-03T14:13:43;98710.59;;;22.10;64.88
63009;BME280;49099;28.428;-16.488;2023-03-03T14:16:19;98704.56;;;22.05;64.87
63009;BME280;49099;28.428;-16.488;2023-03-03T14:18:57;98705.00;;;22.07;64.69
63009;BME280;49099;28.428;-16.488;2023-03-03T14:21:35;98695.19;;;21.90;65.36
63009;BME280;49099;28.428;-16.488;2023-03-03T14:24:10;98693.97;;;21.66;65.93
63009;BME280;49099;28.428;-16.488;2023-03-03T14:26:52;98690.31;;;21.50;66.35
63009;BME280;49099;28.428;-16.488;2023-03-03T14:31:48;98684.72;;;21.88;64.69
63009;BME280;49099;28.428;-16.488;2023-03-03T14:36:50;98673.94;;;22.01;60.29
63009;BME280;49099;28.428;-16.488;2023-03-03T14:39:49;98673.47;;;21.98;60.42
63009;BME280;49099;28.428;-16.488;2023-03-03T14:43:17;98673.72;;;22.06;62.51
63009;BME280;49099;28.428;-16.488;2023-03-03T14:47:57;98660.69;;;22.08;63.17
63009;BME280;49099;28.428;-16.488;2023-03-03T14:50:36;98657.34;;;22.11;63.37
63009;BME280;49099;28.428;-16.488;2023-03-03T14:53:29;98657.06;;;22.04;64.05
63009;BME280;49099;28.428;-16.488;2023-03-03T14:56:29;98650.34;;;22.10;63.60
63009;BME280;49099;28.428;-16.488;2023-03-03T14:59:19;98649.53;;;22.09;63.83
63009;BME280;49099;28.428;-16.488;2023-03-03T15:01:46;98654.38;;;22.04;63.99
63009;BME280;49099;28.428;-16.488;2023-03-03T15:04:24;98654.81;;;22.06;64.25
63009;BME280;49099;28.428;-16.488;2023-03-03T15:06:53;98656.38;;;22.07;64.51
63009;BME280;49099;28.428;-16.488;2023-03-03T15:09:38;98656.38;;;21.94;65.03
63009;BME280;49099;28.428;-16.488;2023-03-03T15:15:18;98667.81;;;21.79;65.99
63009;BME280;49099;28.428;-16.488;2023-03-03T15:20:38;98660.38;;;21.76;65.51
63009;BME280;49099;28.428;-16.488;2023-03-03T15:26:00;98658.44;;;21.64;65.71
63009;BME280;49099;28.428;-16.488;2023-03-03T15:34:00;98649.59;;;21.55;64.92
63009;BME280;49099;28.428;-16.488;2023-03-03T15:36:42;98664.31;;;21.46;65.36
63009;BME280;49099;28.428;-16.488;2023-03-03T15:42:46;98651.47;;;21.42;64.10
63009;BME280;49099;28.428;-16.488;2023-03-03T15:56:53;98641.41;;;21.52;63.84
63009;BME280;49099;28.428;-16.488;2023-03-03T16:05:32;98649.63;;;21.88;62.33
63009;BME280;49099;28.428;-16.488;2023-03-03T16:08:34;98643.44;;;21.88;60.00
63009;BME280;49099;28.428;-16.488;2023-03-03T16:11:14;98645.66;;;21.86;60.99
63009;BME280;49099;28.428;-16.488;2023-03-03T16:16:44;98650.66;;;21.96;62.45
63009;BME280;49099;28.428;-16.488;2023-03-03T16:19:28;98654.47;;;22.07;61.92
63009;BME280;49099;28.428;-16.488;2023-03-03T16:25:12;98641.78;;;23.05;59.22
63009;BME280;49099;28.428;-16.488;2023-03-03T16:41:43;98630.84;;;24.49;51.32
63009;BME280;49099;28.428;-16.488;2023-03-03T16:50:08;98633.00;;;23.80;54.75
63009;BME280;49099;28.428;-16.488;2023-03-03T16:55:49;98633.50;;;23.42;56.21
63009;BME280;49099;28.428;-16.488;2023-03-03T17:07:00;98646.28;;;22.77;60.40
63009;BME280;49099;28.428;-16.488;2023-03-03T17:12:33;98651.03;;;22.31;62.47
63009;BME280;49099;28.428;-16.488;2023-03-03T17:17:46;98664.47;;;21.94;64.41
63009;BME280;49099;28.428;-16.488;2023-03-03T17:20:36;98668.03;;;21.86;64.84
63009;BME280;49099;28.428;-16.488;2023-03-03T17:23:19;98673.88;;;21.76;65.07
63009;BME280;49099;28.428;-16.488;2023-03-03T17:25:57;98676.53;;;21.64;65.48
63009;BME280;49099;28.428;-16.488;2023-03-03T17:31:24;98688.25;;;21.47;66.29
63009;BME280;49099;28.428;-16.488;2023-03-03T17:45:11;98670.78;;;21.24;66.83
63009;BME280;49099;28.428;-16.488;2023-03-03T17:53:30;98679.34;;;21.05;67.32
63009;BME280;49099;28.428;-16.488;2023-03-03T18:01:51;98681.00;;;20.97;67.04
63009;BME280;49099;28.428;-16.488;2023-03-03T18:10:24;98681.38;;;21.08;64.89
63009;BME280;49099;28.428;-16.488;2023-03-03T18:21:07;98685.16;;;20.95;66.38